createdAt,value
2017-10-31T00:00:08.862Z,0
2017-10-31T00:01:18.353Z,0
2017-10-31T00:02:27.566Z,0
2017-10-31T00:03:36.105Z,0
2017-10-31T00:04:44.642Z,0
2017-10-31T00:05:53.183Z,0
2017-10-31T00:07:01.717Z,0
2017-10-31T00:08:10.595Z,0
2017-10-31T00:09:19.474Z,0
2017-10-31T00:10:28.348Z,0
2017-10-31T00:11:37.223Z,0
2017-10-31T00:12:46.104Z,0
2017-10-31T00:13:54.695Z,0
2017-10-31T00:15:03.236Z,0
2017-10-31T00:16:12.112Z,0
2017-10-31T00:17:20.645Z,0
2017-10-31T00:18:29.519Z,0
2017-10-31T00:19:38.054Z,0
2017-10-31T00:20:46.931Z,0
2017-10-31T00:21:55.803Z,0
2017-10-31T00:23:04.679Z,0
2017-10-31T00:24:13.561Z,0
2017-10-31T00:25:22.769Z,0
2017-10-31T00:26:31.987Z,0
2017-10-31T00:27:41.203Z,0
2017-10-31T00:28:50.415Z,0
2017-10-31T00:29:59.282Z,0
2017-10-31T00:31:08.157Z,0
2017-10-31T00:32:17.029Z,0
2017-10-31T00:33:25.901Z,0
2017-10-31T00:34:35.110Z,0
2017-10-31T00:35:43.648Z,0
2017-10-31T00:36:52.185Z,0
2017-10-31T00:38:00.724Z,0
2017-10-31T00:39:09.596Z,0
2017-10-31T00:40:18.136Z,0
2017-10-31T00:41:27.012Z,0
2017-10-31T00:42:35.551Z,0
2017-10-31T00:43:44.763Z,0
2017-10-31T00:44:53.639Z,0
2017-10-31T00:46:02.176Z,0
2017-10-31T00:47:10.716Z,0
2017-10-31T00:48:19.597Z,0
2017-10-31T00:49:28.471Z,0
2017-10-31T00:50:37.347Z,0
2017-10-31T00:51:46.564Z,0
2017-10-31T00:52:55.104Z,0
2017-10-31T00:54:03.640Z,0
2017-10-31T00:55:12.524Z,0
2017-10-31T00:56:21.734Z,0
2017-10-31T00:57:30.272Z,0
2017-10-31T00:58:39.145Z,0
2017-10-31T00:59:47.690Z,0
2017-10-31T01:00:56.571Z,0
2017-10-31T01:02:06.118Z,0
2017-10-31T01:03:14.653Z,0
2017-10-31T01:04:23.873Z,0
2017-10-31T01:05:32.414Z,0
2017-10-31T01:06:41.625Z,0
2017-10-31T01:07:50.498Z,0
2017-10-31T01:08:59.375Z,0
2017-10-31T01:10:08.583Z,0
2017-10-31T01:11:17.463Z,0
2017-10-31T01:12:26.664Z,0
2017-10-31T01:13:35.548Z,0
2017-10-31T01:14:44.077Z,0
2017-10-31T01:15:53.287Z,0
2017-10-31T01:17:02.162Z,0
2017-10-31T01:18:10.701Z,0
2017-10-31T01:19:19.913Z,0
2017-10-31T01:20:29.125Z,0
2017-10-31T01:21:38.337Z,0
2017-10-31T01:22:47.879Z,0
2017-10-31T01:23:56.417Z,0
2017-10-31T01:25:05.634Z,0
2017-10-31T01:26:14.842Z,0
2017-10-31T01:27:23.379Z,0
2017-10-31T01:28:32.253Z,0
2017-10-31T01:29:41.463Z,0
2017-10-31T01:30:50.340Z,0
2017-10-31T01:31:59.551Z,0
2017-10-31T01:33:08.087Z,0
2017-10-31T01:34:16.626Z,0
2017-10-31T01:35:26.175Z,0
2017-10-31T01:36:35.061Z,0
2017-10-31T01:37:44.613Z,0
2017-10-31T01:38:53.821Z,0
2017-10-31T01:40:02.698Z,0
2017-10-31T01:41:11.571Z,0
2017-10-31T01:42:20.442Z,0
2017-10-31T01:43:29.654Z,0
2017-10-31T01:44:38.198Z,0
2017-10-31T01:45:47.411Z,0
2017-10-31T01:46:56.293Z,0
2017-10-31T01:48:04.837Z,0
2017-10-31T01:49:13.712Z,0
2017-10-31T01:50:22.919Z,0
2017-10-31T01:51:31.794Z,0
2017-10-31T01:52:40.667Z,0
2017-10-31T01:53:49.538Z,0
2017-10-31T01:54:58.074Z,0
2017-10-31T01:56:07.448Z,0
2017-10-31T01:57:16.661Z,0
2017-10-31T01:58:25.872Z,0
2017-10-31T01:59:34.412Z,0
2017-10-31T02:00:42.952Z,0
2017-10-31T02:01:52.232Z,0
2017-10-31T02:03:01.104Z,0
2017-10-31T02:04:09.980Z,0
2017-10-31T02:05:18.852Z,0
2017-10-31T02:06:28.076Z,0
2017-10-31T02:07:36.617Z,0
2017-10-31T02:08:45.158Z,0
2017-10-31T02:09:54.034Z,0
2017-10-31T02:11:02.567Z,0
2017-10-31T02:12:11.446Z,0
2017-10-31T02:13:19.982Z,0
2017-10-31T02:14:28.520Z,0
2017-10-31T02:15:37.393Z,0
2017-10-31T02:16:46.271Z,0
2017-10-31T02:17:55.145Z,0
2017-10-31T02:19:04.689Z,0
2017-10-31T02:20:13.565Z,0
2017-10-31T02:21:22.109Z,0
2017-10-31T02:22:30.651Z,0
2017-10-31T02:23:39.860Z,0
2017-10-31T02:24:49.089Z,0
2017-10-31T02:25:57.973Z,0
2017-10-31T02:27:07.186Z,0
2017-10-31T02:28:16.063Z,0
2017-10-31T02:29:25.272Z,0
2017-10-31T02:30:34.493Z,0
2017-10-31T02:31:43.366Z,0
2017-10-31T02:32:52.912Z,0
2017-10-31T02:34:01.799Z,0
2017-10-31T02:35:10.676Z,0
2017-10-31T02:36:19.211Z,0
2017-10-31T02:37:27.752Z,0
2017-10-31T02:38:37.301Z,0
2017-10-31T02:39:45.840Z,0
2017-10-31T02:40:55.047Z,0
2017-10-31T02:42:03.927Z,0
2017-10-31T02:43:12.801Z,0
2017-10-31T02:44:21.681Z,0
2017-10-31T02:45:30.557Z,0
2017-10-31T02:46:39.435Z,0
2017-10-31T02:47:48.308Z,0
2017-10-31T02:48:57.185Z,0
2017-10-31T02:50:06.062Z,0
2017-10-31T02:51:14.610Z,0
2017-10-31T02:52:23.833Z,0
2017-10-31T02:53:32.353Z,0
2017-10-31T02:54:40.894Z,0
2017-10-31T02:55:49.771Z,0
2017-10-31T02:56:58.654Z,0
2017-10-31T02:58:07.544Z,0
2017-10-31T02:59:16.425Z,0
2017-10-31T03:00:25.301Z,0
2017-10-31T03:01:33.835Z,0
2017-10-31T03:02:42.713Z,0
2017-10-31T03:03:51.586Z,0
2017-10-31T03:05:00.126Z,0
2017-10-31T03:06:08.664Z,0
2017-10-31T03:07:17.204Z,0
2017-10-31T03:08:26.080Z,0
2017-10-31T03:09:34.619Z,0
2017-10-31T03:10:43.496Z,0
2017-10-31T03:11:52.372Z,0
2017-10-31T03:13:00.911Z,0
2017-10-31T03:14:10.455Z,0
2017-10-31T03:15:18.994Z,0
2017-10-31T03:16:28.202Z,0
2017-10-31T03:17:37.085Z,0
2017-10-31T03:18:45.961Z,0
2017-10-31T03:19:55.512Z,0
2017-10-31T03:21:04.391Z,0
2017-10-31T03:22:12.927Z,0
2017-10-31T03:23:21.466Z,0
2017-10-31T03:24:30.340Z,0
2017-10-31T03:25:39.213Z,0
2017-10-31T03:26:47.749Z,0
2017-10-31T03:27:56.970Z,0
2017-10-31T03:29:05.842Z,0
2017-10-31T03:30:14.380Z,0
2017-10-31T03:31:23.592Z,0
2017-10-31T03:32:32.802Z,0
2017-10-31T03:33:41.340Z,0
2017-10-31T03:34:49.876Z,0
2017-10-31T03:35:58.750Z,0
2017-10-31T03:37:07.621Z,0
2017-10-31T03:38:16.167Z,0
2017-10-31T03:39:25.038Z,0
2017-10-31T03:40:33.921Z,0
2017-10-31T03:41:42.796Z,0
2017-10-31T03:42:52.344Z,0
2017-10-31T03:44:01.560Z,0
2017-10-31T03:45:10.434Z,0
2017-10-31T03:46:19.984Z,0
2017-10-31T03:47:29.867Z,0
2017-10-31T03:48:38.412Z,0
2017-10-31T03:49:47.622Z,0
2017-10-31T03:50:56.494Z,0
2017-10-31T03:52:05.035Z,0
2017-10-31T03:53:13.914Z,0
2017-10-31T03:54:22.800Z,0
2017-10-31T03:55:31.337Z,0
2017-10-31T03:56:40.544Z,0
2017-10-31T03:57:49.081Z,0
2017-10-31T03:58:57.617Z,0
2017-10-31T04:00:06.835Z,0
2017-10-31T04:01:15.706Z,0
2017-10-31T04:02:24.241Z,0
2017-10-31T04:03:32.779Z,0
2017-10-31T04:04:41.319Z,0
2017-10-31T04:05:50.533Z,0
2017-10-31T04:06:59.072Z,0
2017-10-31T04:08:07.611Z,0
2017-10-31T04:09:16.825Z,0
2017-10-31T04:10:25.719Z,0
2017-10-31T04:11:34.256Z,0
2017-10-31T04:12:42.794Z,0
2017-10-31T04:13:51.672Z,0
2017-10-31T04:15:00.888Z,0
2017-10-31T04:16:09.427Z,0
2017-10-31T04:17:18.304Z,0
2017-10-31T04:18:27.522Z,0
2017-10-31T04:19:36.394Z,0
2017-10-31T04:20:45.270Z,0
2017-10-31T04:21:54.143Z,0
2017-10-31T04:23:02.684Z,0
2017-10-31T04:24:12.239Z,0
2017-10-31T04:25:20.782Z,0
2017-10-31T04:26:29.321Z,0
2017-10-31T04:27:38.530Z,0
2017-10-31T04:28:47.068Z,0
2017-10-31T04:29:55.949Z,0
2017-10-31T04:31:04.479Z,0
2017-10-31T04:32:13.694Z,0
2017-10-31T04:33:22.563Z,0
2017-10-31T04:34:31.774Z,0
2017-10-31T04:35:40.648Z,0
2017-10-31T04:36:49.854Z,0
2017-10-31T04:37:58.727Z,0
2017-10-31T04:39:07.262Z,0
2017-10-31T04:40:16.137Z,0
2017-10-31T04:41:25.007Z,0
2017-10-31T04:42:33.886Z,0
2017-10-31T04:43:42.760Z,0
2017-10-31T04:44:51.299Z,0
2017-10-31T04:46:00.184Z,0
2017-10-31T04:47:08.723Z,0
2017-10-31T04:48:17.947Z,0
2017-10-31T04:49:26.820Z,0
2017-10-31T04:50:35.692Z,0
2017-10-31T04:51:44.904Z,0
2017-10-31T04:52:53.776Z,0
2017-10-31T04:54:02.316Z,0
2017-10-31T04:55:11.531Z,0
2017-10-31T04:56:20.411Z,0
2017-10-31T04:57:29.287Z,0
2017-10-31T04:58:38.496Z,0
2017-10-31T04:59:47.034Z,0
2017-10-31T05:00:55.970Z,0
2017-10-31T05:02:04.841Z,0
2017-10-31T05:03:13.712Z,0
2017-10-31T05:04:22.585Z,0
2017-10-31T05:05:31.126Z,0
2017-10-31T05:06:39.664Z,0
2017-10-31T05:07:48.207Z,0
2017-10-31T05:08:57.756Z,0
2017-10-31T05:10:06.626Z,0
2017-10-31T05:11:15.552Z,0
2017-10-31T05:12:24.092Z,0
2017-10-31T05:13:32.631Z,0
2017-10-31T05:14:42.191Z,0
2017-10-31T05:15:50.729Z,0
2017-10-31T05:16:59.604Z,0
2017-10-31T05:18:08.475Z,0
2017-10-31T05:19:17.013Z,0
2017-10-31T05:20:25.553Z,0
2017-10-31T05:21:34.761Z,0
2017-10-31T05:22:43.303Z,0
2017-10-31T05:23:52.180Z,0
2017-10-31T05:25:01.390Z,0
2017-10-31T05:26:09.931Z,0
2017-10-31T05:27:18.805Z,0
2017-10-31T05:28:28.360Z,0
2017-10-31T05:29:37.233Z,0
2017-10-31T05:30:46.122Z,0
2017-10-31T05:31:54.997Z,0
2017-10-31T05:33:03.871Z,0
2017-10-31T05:34:12.743Z,0
2017-10-31T05:35:21.951Z,0
2017-10-31T05:36:31.214Z,0
2017-10-31T05:37:40.426Z,0
2017-10-31T05:38:49.301Z,0
2017-10-31T05:39:58.173Z,0
2017-10-31T05:41:07.389Z,0
2017-10-31T05:42:17.269Z,0
2017-10-31T05:43:25.807Z,0
2017-10-31T05:44:35.022Z,0
2017-10-31T05:45:43.899Z,0
2017-10-31T05:46:53.108Z,0
2017-10-31T05:48:02.320Z,0
2017-10-31T05:49:11.192Z,0
2017-10-31T05:50:20.064Z,0
2017-10-31T05:51:29.281Z,0
2017-10-31T05:52:38.153Z,0
2017-10-31T05:53:47.026Z,0
2017-10-31T05:54:56.360Z,0
2017-10-31T05:56:05.232Z,4
2017-10-31T05:57:13.773Z,4
2017-10-31T05:58:22.313Z,4
2017-10-31T05:59:30.854Z,0
2017-10-31T06:00:39.389Z,4
2017-10-31T06:01:48.263Z,4
2017-10-31T06:02:56.799Z,4
2017-10-31T06:04:05.674Z,4
2017-10-31T06:05:14.211Z,4
2017-10-31T06:06:22.751Z,4
2017-10-31T06:07:31.629Z,4
2017-10-31T06:08:40.166Z,8
2017-10-31T06:09:49.400Z,8
2017-10-31T06:10:58.322Z,8
2017-10-31T06:12:06.858Z,12
2017-10-31T06:13:15.397Z,12
2017-10-31T06:14:24.270Z,16
2017-10-31T06:15:33.144Z,16
2017-10-31T06:16:42.019Z,20
2017-10-31T06:17:50.561Z,28
2017-10-31T06:18:59.432Z,32
2017-10-31T06:20:08.325Z,36
2017-10-31T06:21:17.199Z,40
2017-10-31T06:22:25.738Z,48
2017-10-31T06:23:34.616Z,52
2017-10-31T06:24:43.491Z,60
2017-10-31T06:25:52.027Z,64
2017-10-31T06:27:00.898Z,76
2017-10-31T06:28:09.439Z,84
2017-10-31T06:29:18.652Z,88
2017-10-31T06:30:27.525Z,92
2017-10-31T06:31:36.402Z,108
2017-10-31T06:32:45.276Z,120
2017-10-31T06:33:54.146Z,136
2017-10-31T06:35:03.356Z,148
2017-10-31T06:36:12.034Z,152
2017-10-31T06:37:20.968Z,164
2017-10-31T06:38:30.279Z,184
2017-10-31T06:39:38.825Z,200
2017-10-31T06:40:47.356Z,212
2017-10-31T06:41:55.892Z,224
2017-10-31T06:43:05.098Z,248
2017-10-31T06:44:13.638Z,268
2017-10-31T06:45:22.511Z,284
2017-10-31T06:46:31.049Z,292
2017-10-31T06:47:39.590Z,288
2017-10-31T06:48:48.796Z,276
2017-10-31T06:49:58.342Z,264
2017-10-31T06:51:07.226Z,256
2017-10-31T06:52:15.766Z,240
2017-10-31T06:53:24.301Z,236
2017-10-31T06:54:33.189Z,232
2017-10-31T06:55:41.779Z,224
2017-10-31T06:56:50.994Z,228
2017-10-31T06:57:59.869Z,232
2017-10-31T06:59:08.406Z,232
2017-10-31T07:00:17.278Z,236
2017-10-31T07:01:25.818Z,252
2017-10-31T07:02:35.029Z,280
2017-10-31T07:03:43.912Z,304
2017-10-31T07:04:52.787Z,348
2017-10-31T07:06:01.663Z,420
2017-10-31T07:07:10.874Z,488
2017-10-31T07:08:19.413Z,556
2017-10-31T07:09:27.953Z,652
2017-10-31T07:10:37.164Z,748
2017-10-31T07:11:46.039Z,852
2017-10-31T07:12:54.914Z,960
2017-10-31T07:14:03.790Z,964
2017-10-31T07:15:12.321Z,908
2017-10-31T07:16:20.858Z,908
2017-10-31T07:17:29.393Z,976
2017-10-31T07:18:38.275Z,1056
2017-10-31T07:19:46.816Z,1136
2017-10-31T07:20:55.690Z,1188
2017-10-31T07:22:04.230Z,1188
2017-10-31T07:23:13.107Z,1168
2017-10-31T07:24:21.988Z,1164
2017-10-31T07:25:31.538Z,1132
2017-10-31T07:26:40.746Z,1116
2017-10-31T07:27:49.959Z,1224
2017-10-31T07:28:58.497Z,1296
2017-10-31T07:30:07.372Z,1408
2017-10-31T07:31:16.250Z,1692
2017-10-31T07:32:24.791Z,2000
2017-10-31T07:33:33.668Z,2100
2017-10-31T07:34:42.537Z,1960
2017-10-31T07:35:52.422Z,1624
2017-10-31T07:37:01.065Z,1308
2017-10-31T07:38:09.694Z,1116
2017-10-31T07:39:18.272Z,1016
2017-10-31T07:40:27.148Z,928
2017-10-31T07:41:36.025Z,808
2017-10-31T07:42:44.562Z,764
2017-10-31T07:43:53.434Z,788
2017-10-31T07:45:02.312Z,824
2017-10-31T07:46:11.184Z,860
2017-10-31T07:47:20.061Z,860
2017-10-31T07:48:29.279Z,832
2017-10-31T07:49:38.154Z,860
2017-10-31T07:50:46.694Z,932
2017-10-31T07:51:55.236Z,1036
2017-10-31T07:53:04.800Z,1188
2017-10-31T07:54:13.341Z,1276
2017-10-31T07:55:22.554Z,1444
2017-10-31T07:56:31.096Z,1872
2017-10-31T07:57:40.304Z,2324
2017-10-31T07:58:48.859Z,2488
2017-10-31T07:59:57.734Z,2616
2017-10-31T08:01:06.274Z,2716
2017-10-31T08:02:15.597Z,2748
2017-10-31T08:03:24.473Z,2764
2017-10-31T08:04:33.364Z,2776
2017-10-31T08:05:41.906Z,2788
2017-10-31T08:06:50.785Z,2804
2017-10-31T08:07:59.997Z,2696
2017-10-31T08:09:09.210Z,2540
2017-10-31T08:10:18.087Z,2340
2017-10-31T08:11:26.624Z,2256
2017-10-31T08:12:35.514Z,2228
2017-10-31T08:13:44.409Z,2232
2017-10-31T08:14:53.283Z,2292
2017-10-31T08:16:02.163Z,2260
2017-10-31T08:17:11.371Z,2200
2017-10-31T08:18:20.582Z,2132
2017-10-31T08:19:29.461Z,2180
2017-10-31T08:20:38.000Z,2208
2017-10-31T08:21:46.541Z,2264
2017-10-31T08:22:55.087Z,2272
2017-10-31T08:24:03.965Z,2264
2017-10-31T08:25:13.191Z,2288
2017-10-31T08:26:21.732Z,2368
2017-10-31T08:27:30.286Z,2656
2017-10-31T08:28:39.165Z,2840
2017-10-31T08:29:48.374Z,3152
2017-10-31T08:30:57.251Z,3252
2017-10-31T08:32:05.790Z,3136
2017-10-31T08:33:14.663Z,2924
2017-10-31T08:34:23.877Z,2580
2017-10-31T08:35:32.417Z,2416
2017-10-31T08:36:41.627Z,2360
2017-10-31T08:37:50.501Z,2344
2017-10-31T08:38:59.044Z,2444
2017-10-31T08:40:07.922Z,2692
2017-10-31T08:41:17.479Z,2864
2017-10-31T08:42:26.692Z,2928
2017-10-31T08:43:35.595Z,2952
2017-10-31T08:44:44.476Z,3008
2017-10-31T08:45:53.688Z,3480
2017-10-31T08:47:02.566Z,3700
2017-10-31T08:48:11.976Z,3528
2017-10-31T08:49:21.524Z,3504
2017-10-31T08:50:30.063Z,3572
2017-10-31T08:51:38.940Z,3492
2017-10-31T08:52:48.497Z,3484
2017-10-31T08:53:57.710Z,3768
2017-10-31T08:55:06.928Z,3752
2017-10-31T08:56:15.804Z,3528
2017-10-31T08:57:24.683Z,3440
2017-10-31T08:58:33.227Z,3544
2017-10-31T08:59:42.436Z,3768
2017-10-31T09:00:51.310Z,4180
2017-10-31T09:02:00.184Z,4632
2017-10-31T09:03:09.400Z,5008
2017-10-31T09:04:18.615Z,5140
2017-10-31T09:05:27.201Z,5052
2017-10-31T09:06:36.412Z,4992
2017-10-31T09:07:45.626Z,4828
2017-10-31T09:08:55.184Z,4640
2017-10-31T09:10:04.065Z,4512
2017-10-31T09:11:12.605Z,4484
2017-10-31T09:12:21.148Z,4580
2017-10-31T09:13:30.404Z,4748
2017-10-31T09:14:39.041Z,5168
2017-10-31T09:15:47.915Z,5580
2017-10-31T09:16:56.454Z,5696
2017-10-31T09:18:04.991Z,5572
2017-10-31T09:19:14.572Z,5188
2017-10-31T09:20:23.189Z,4796
2017-10-31T09:21:32.165Z,4520
2017-10-31T09:22:41.194Z,4528
2017-10-31T09:23:49.864Z,4568
2017-10-31T09:24:58.898Z,4556
2017-10-31T09:26:08.004Z,4376
2017-10-31T09:27:16.738Z,4300
2017-10-31T09:28:26.040Z,4348
2017-10-31T09:29:35.853Z,4372
2017-10-31T09:30:44.827Z,4492
2017-10-31T09:31:53.812Z,4652
2017-10-31T09:33:03.246Z,4944
2017-10-31T09:34:12.259Z,5212
2017-10-31T09:35:20.960Z,5408
2017-10-31T09:36:29.912Z,5472
2017-10-31T09:37:39.277Z,5600
2017-10-31T09:38:48.690Z,5672
2017-10-31T09:39:57.808Z,5660
2017-10-31T09:41:06.381Z,5580
2017-10-31T09:42:14.952Z,5436
2017-10-31T09:43:24.164Z,5416
2017-10-31T09:44:32.708Z,5460
2017-10-31T09:45:41.585Z,5424
2017-10-31T09:46:50.462Z,5208
2017-10-31T09:47:59.025Z,4980
2017-10-31T09:49:08.241Z,4924
2017-10-31T09:50:16.780Z,4968
2017-10-31T09:51:25.814Z,5084
2017-10-31T09:52:34.693Z,5200
2017-10-31T09:53:43.569Z,5372
2017-10-31T09:54:52.448Z,5568
2017-10-31T09:56:00.988Z,5580
2017-10-31T09:57:09.875Z,5400
2017-10-31T09:58:18.755Z,5336
2017-10-31T09:59:27.299Z,5424
2017-10-31T10:00:36.621Z,5372
2017-10-31T10:01:45.835Z,5280
2017-10-31T10:02:54.380Z,5268
2017-10-31T10:04:03.259Z,5396
2017-10-31T10:05:11.810Z,5364
2017-10-31T10:06:21.087Z,5360
2017-10-31T10:07:29.625Z,5512
2017-10-31T10:08:39.175Z,5552
2017-10-31T10:09:48.055Z,5568
2017-10-31T10:10:57.274Z,5444
2017-10-31T10:12:06.149Z,5212
2017-10-31T10:13:15.025Z,5172
2017-10-31T10:14:24.236Z,5268
2017-10-31T10:15:33.118Z,5336
2017-10-31T10:16:41.655Z,5304
2017-10-31T10:17:50.867Z,5236
2017-10-31T10:18:59.744Z,5204
2017-10-31T10:20:08.619Z,5132
2017-10-31T10:21:17.156Z,4980
2017-10-31T10:22:25.699Z,4920
2017-10-31T10:23:34.571Z,4976
2017-10-31T10:24:43.450Z,5332
2017-10-31T10:25:51.986Z,5688
2017-10-31T10:27:00.526Z,5892
2017-10-31T10:28:09.404Z,5860
2017-10-31T10:29:18.622Z,5904
2017-10-31T10:30:27.171Z,5944
2017-10-31T10:31:36.044Z,6056
2017-10-31T10:32:44.927Z,6232
2017-10-31T10:33:53.802Z,6180
2017-10-31T10:35:03.015Z,6084
2017-10-31T10:36:11.552Z,6024
2017-10-31T10:37:20.429Z,6164
2017-10-31T10:38:29.642Z,6352
2017-10-31T10:39:38.521Z,6448
2017-10-31T10:40:47.736Z,6576
2017-10-31T10:41:56.964Z,6576
2017-10-31T10:43:05.491Z,6196
2017-10-31T10:44:14.709Z,5788
2017-10-31T10:45:23.587Z,5540
2017-10-31T10:46:32.803Z,5292
2017-10-31T10:47:41.346Z,5128
2017-10-31T10:48:50.896Z,5140
2017-10-31T10:50:00.107Z,5092
2017-10-31T10:51:08.659Z,4992
2017-10-31T10:52:17.546Z,4612
2017-10-31T10:53:26.086Z,4448
2017-10-31T10:54:35.639Z,5052
2017-10-31T10:55:44.183Z,5516
2017-10-31T10:56:53.058Z,5700
2017-10-31T10:58:01.938Z,6032
2017-10-31T10:59:11.150Z,6100
2017-10-31T11:00:20.048Z,6072
2017-10-31T11:01:29.262Z,6496
2017-10-31T11:02:37.803Z,6732
2017-10-31T11:03:46.686Z,6628
2017-10-31T11:04:55.710Z,6392
2017-10-31T11:06:04.585Z,6320
2017-10-31T11:07:13.124Z,6820
2017-10-31T11:08:22.000Z,7248
2017-10-31T11:09:30.929Z,7140
2017-10-31T11:10:39.470Z,6992
2017-10-31T11:11:48.693Z,6840
2017-10-31T11:12:57.907Z,6460
2017-10-31T11:14:06.449Z,6348
2017-10-31T11:15:15.338Z,6404
2017-10-31T11:16:23.882Z,6612
2017-10-31T11:17:33.436Z,6556
2017-10-31T11:18:42.324Z,6488
2017-10-31T11:19:50.866Z,6560
2017-10-31T11:20:59.409Z,6692
2017-10-31T11:22:08.283Z,6716
2017-10-31T11:23:16.824Z,6540
2017-10-31T11:24:25.364Z,6036
2017-10-31T11:25:33.905Z,5508
2017-10-31T11:26:42.803Z,5220
2017-10-31T11:27:51.343Z,5176
2017-10-31T11:29:00.560Z,5268
2017-10-31T11:30:09.438Z,5316
2017-10-31T11:31:17.978Z,5424
2017-10-31T11:32:27.536Z,5484
2017-10-31T11:33:36.417Z,5440
2017-10-31T11:34:44.960Z,5552
2017-10-31T11:35:53.504Z,5828
2017-10-31T11:37:02.419Z,6388
2017-10-31T11:38:11.631Z,6952
2017-10-31T11:39:20.517Z,7280
2017-10-31T11:40:30.069Z,6936
2017-10-31T11:41:39.619Z,6724
2017-10-31T11:42:48.490Z,6784
2017-10-31T11:43:57.372Z,7096
2017-10-31T11:45:06.261Z,7428
2017-10-31T11:46:15.139Z,7824
2017-10-31T11:47:27.753Z,8056
2017-10-31T11:48:36.632Z,7836
2017-10-31T11:49:45.844Z,7824
2017-10-31T11:50:54.732Z,7960
2017-10-31T11:52:03.966Z,8260
2017-10-31T11:53:12.845Z,8508
2017-10-31T11:54:21.722Z,8420
2017-10-31T11:55:30.605Z,8280
2017-10-31T11:56:39.834Z,8108
2017-10-31T11:57:48.376Z,8020
2017-10-31T11:58:57.258Z,8188
2017-10-31T12:00:06.477Z,7840
2017-10-31T12:01:15.016Z,7608
2017-10-31T12:02:23.561Z,7512
2017-10-31T12:03:32.102Z,7140
2017-10-31T12:04:40.982Z,6652
2017-10-31T12:05:49.863Z,6392
2017-10-31T12:06:58.421Z,6056
2017-10-31T12:08:07.300Z,5556
2017-10-31T12:09:15.845Z,4908
2017-10-31T12:10:24.725Z,4368
2017-10-31T12:11:33.605Z,3916
2017-10-31T12:12:42.488Z,3500
2017-10-31T12:13:51.026Z,3228
2017-10-31T12:15:00.439Z,3200
2017-10-31T12:16:09.667Z,3348
2017-10-31T12:17:18.885Z,3324
2017-10-31T12:18:27.427Z,3132
2017-10-31T12:19:36.304Z,3224
2017-10-31T12:20:45.176Z,3428
2017-10-31T12:21:53.718Z,3564
2017-10-31T12:23:02.259Z,3756
2017-10-31T12:24:11.146Z,4024
2017-10-31T12:25:19.684Z,4316
2017-10-31T12:26:28.903Z,4584
2017-10-31T12:27:37.449Z,4952
2017-10-31T12:28:46.327Z,5148
2017-10-31T12:29:55.215Z,5000
2017-10-31T12:31:04.430Z,4812
2017-10-31T12:32:13.314Z,4668
2017-10-31T12:33:22.531Z,4636
2017-10-31T12:34:31.746Z,4632
2017-10-31T12:35:40.960Z,4564
2017-10-31T12:36:49.838Z,4536
2017-10-31T12:37:59.056Z,4596
2017-10-31T12:39:07.933Z,4492
2017-10-31T12:40:17.153Z,4292
2017-10-31T12:41:25.697Z,4168
2017-10-31T12:42:34.586Z,4172
2017-10-31T12:43:43.572Z,4292
2017-10-31T12:44:52.115Z,4408
2017-10-31T12:46:00.992Z,4284
2017-10-31T12:47:09.531Z,4104
2017-10-31T12:48:18.076Z,4080
2017-10-31T12:49:26.622Z,4304
2017-10-31T12:50:35.163Z,4516
2017-10-31T12:51:44.045Z,4828
2017-10-31T12:52:52.921Z,4944
2017-10-31T12:54:01.466Z,4688
2017-10-31T12:55:10.009Z,4792
2017-10-31T12:56:18.550Z,4828
2017-10-31T12:57:27.443Z,4980
2017-10-31T12:58:35.987Z,4764
2017-10-31T12:59:44.865Z,4956
2017-10-31T13:00:53.406Z,4168
2017-10-31T13:02:01.948Z,3836
2017-10-31T13:03:10.828Z,3976
2017-10-31T13:04:19.369Z,3828
2017-10-31T13:05:28.246Z,4292
2017-10-31T13:06:37.467Z,5028
2017-10-31T13:07:46.679Z,5280
2017-10-31T13:08:55.222Z,5060
2017-10-31T13:10:04.101Z,4552
2017-10-31T13:11:13.312Z,4244
2017-10-31T13:12:22.536Z,4040
2017-10-31T13:13:31.082Z,3756
2017-10-31T13:14:39.968Z,3308
2017-10-31T13:15:49.179Z,3224
2017-10-31T13:16:58.390Z,3196
2017-10-31T13:18:07.273Z,2940
2017-10-31T13:19:16.158Z,2608
2017-10-31T13:20:25.032Z,2488
2017-10-31T13:21:33.911Z,2444
2017-10-31T13:22:43.123Z,2460
2017-10-31T13:23:51.999Z,2392
2017-10-31T13:25:00.884Z,2328
2017-10-31T13:26:09.768Z,2224
2017-10-31T13:27:18.762Z,2160
2017-10-31T13:28:27.656Z,2164
2017-10-31T13:29:37.359Z,2184
2017-10-31T13:30:46.908Z,2076
2017-10-31T13:31:55.454Z,1892
2017-10-31T13:33:03.994Z,1836
2017-10-31T13:34:13.212Z,1932
2017-10-31T13:35:22.091Z,2064
2017-10-31T13:36:30.634Z,2160
2017-10-31T13:37:39.173Z,2240
2017-10-31T13:38:48.050Z,2396
2017-10-31T13:39:56.592Z,2536
2017-10-31T13:41:05.470Z,2736
2017-10-31T13:42:14.691Z,3028
2017-10-31T13:43:23.904Z,3272
2017-10-31T13:44:32.786Z,3196
2017-10-31T13:45:41.663Z,2700
2017-10-31T13:46:50.543Z,2336
2017-10-31T13:47:59.420Z,2084
2017-10-31T13:49:07.964Z,2100
2017-10-31T13:50:16.505Z,2352
2017-10-31T13:51:25.719Z,2460
2017-10-31T13:52:34.596Z,2476
2017-10-31T13:53:43.137Z,2464
2017-10-31T13:54:52.016Z,2464
2017-10-31T13:56:00.559Z,2560
2017-10-31T13:57:09.769Z,2700
2017-10-31T13:58:18.310Z,2684
2017-10-31T13:59:26.852Z,2380
2017-10-31T14:00:35.393Z,2096
2017-10-31T14:01:44.610Z,1968
2017-10-31T14:02:53.488Z,1868
2017-10-31T14:04:02.708Z,1820
2017-10-31T14:05:11.299Z,1832
2017-10-31T14:06:20.184Z,1820
2017-10-31T14:07:29.067Z,1852
2017-10-31T14:08:37.612Z,1856
2017-10-31T14:09:46.156Z,1840
2017-10-31T14:10:54.699Z,1844
2017-10-31T14:12:03.241Z,1896
2017-10-31T14:13:12.125Z,2196
2017-10-31T14:14:21.343Z,2352
2017-10-31T14:15:30.221Z,2504
2017-10-31T14:16:39.433Z,2680
2017-10-31T14:17:47.975Z,2736
2017-10-31T14:18:57.536Z,2816
2017-10-31T14:20:06.416Z,2840
2017-10-31T14:21:15.293Z,2796
2017-10-31T14:22:24.170Z,2412
2017-10-31T14:23:32.709Z,2148
2017-10-31T14:24:41.921Z,1988
2017-10-31T14:25:50.809Z,1824
2017-10-31T14:26:59.687Z,1628
2017-10-31T14:28:08.910Z,1448
2017-10-31T14:29:18.117Z,1544
2017-10-31T14:30:26.996Z,1492
2017-10-31T14:31:35.875Z,1460
2017-10-31T14:32:44.415Z,1336
2017-10-31T14:33:53.644Z,1212
2017-10-31T14:35:02.177Z,1200
2017-10-31T14:36:11.052Z,1196
2017-10-31T14:37:19.929Z,1184
2017-10-31T14:38:28.471Z,1104
2017-10-31T14:39:37.689Z,1008
2017-10-31T14:40:46.957Z,940
2017-10-31T14:41:56.168Z,852
2017-10-31T14:43:05.196Z,804
2017-10-31T14:44:14.077Z,812
2017-10-31T14:45:22.955Z,796
2017-10-31T14:46:31.832Z,720
2017-10-31T14:47:41.041Z,660
2017-10-31T14:48:49.731Z,628
2017-10-31T14:49:58.608Z,644
2017-10-31T14:51:07.495Z,576
2017-10-31T14:52:16.030Z,536
2017-10-31T14:53:25.243Z,608
2017-10-31T14:54:33.788Z,612
2017-10-31T14:55:42.665Z,600
2017-10-31T14:56:51.538Z,592
2017-10-31T14:58:00.418Z,568
2017-10-31T14:59:09.630Z,564
2017-10-31T15:00:18.510Z,608
2017-10-31T15:01:27.385Z,640
2017-10-31T15:02:36.265Z,640
2017-10-31T15:03:44.807Z,584
2017-10-31T15:04:54.017Z,548
2017-10-31T15:06:32.309Z,588
2017-10-31T15:07:41.183Z,608
2017-10-31T15:08:50.062Z,648
2017-10-31T15:09:58.940Z,640
2017-10-31T15:11:07.481Z,664
2017-10-31T15:12:17.029Z,680
2017-10-31T15:13:25.921Z,564
2017-10-31T15:14:34.794Z,520
2017-10-31T15:15:44.008Z,500
2017-10-31T15:16:52.550Z,500
2017-10-31T15:18:01.089Z,460
2017-10-31T15:19:09.630Z,416
2017-10-31T15:20:18.517Z,368
2017-10-31T15:21:27.396Z,372
2017-10-31T15:22:36.949Z,448
2017-10-31T15:23:45.850Z,476
2017-10-31T15:24:55.056Z,412
2017-10-31T15:26:04.282Z,344
2017-10-31T15:27:13.830Z,320
2017-10-31T15:28:22.712Z,300
2017-10-31T15:29:31.922Z,288
2017-10-31T15:30:40.465Z,312
2017-10-31T15:31:49.006Z,312
2017-10-31T15:32:57.886Z,292
2017-10-31T15:34:06.762Z,280
2017-10-31T15:35:15.641Z,232
2017-10-31T15:36:24.857Z,208
2017-10-31T15:37:33.397Z,208
2017-10-31T15:38:41.942Z,220
2017-10-31T15:39:51.161Z,200
2017-10-31T15:40:59.701Z,200
2017-10-31T15:42:08.241Z,204
2017-10-31T15:43:17.121Z,180
2017-10-31T15:44:25.998Z,168
2017-10-31T15:45:34.974Z,148
2017-10-31T15:46:43.516Z,132
2017-10-31T15:47:52.395Z,124
2017-10-31T15:49:01.271Z,120
2017-10-31T15:50:10.156Z,120
2017-10-31T15:51:19.376Z,116
2017-10-31T15:52:28.250Z,104
2017-10-31T15:53:36.804Z,104
2017-10-31T15:54:45.677Z,96
2017-10-31T15:55:54.227Z,92
2017-10-31T15:57:03.442Z,92
2017-10-31T15:58:12.329Z,88
2017-10-31T15:59:21.544Z,84
2017-10-31T16:00:30.419Z,72